sensor_id;sensor_type;location;lat;lon;timestamp;pressure;altitude;pressure_sealevel;temperature
14784;BMP180;7483;50.498;12.138;2022-07-06T00:01:07;96715.00;;;19.20
14784;BMP180;7483;50.498;12.138;2022-07-06T00:03:35;96733.00;;;19.30
14784;BMP180;7483;50.498;12.138;2022-07-06T00:06:03;96746.00;;;19.30
14784;BMP180;7483;50.498;12.138;2022-07-06T00:08:32;96764.00;;;19.40
14784;BMP180;7483;50.498;12.138;2022-07-06T00:11:02;96740.00;;;19.30
14784;BMP180;7483;50.498;12.138;2022-07-06T00:13:30;96733.00;;;19.10
14784;BMP180;7483;50.498;12.138;2022-07-06T00:15:58;96746.00;;;19.10
14784;BMP180;7483;50.498;12.138;2022-07-06T00:18:26;96748.00;;;19.20
14784;BMP180;7483;50.498;12.138;2022-07-06T00:20:54;96764.00;;;19.30
14784;BMP180;7483;50.498;12.138;2022-07-06T00:23:22;96762.00;;;19.30
14784;BMP180;7483;50.498;12.138;2022-07-06T00:25:50;96752.00;;;19.30
14784;BMP180;7483;50.498;12.138;2022-07-06T00:28:19;96701.00;;;18.90
14784;BMP180;7483;50.498;12.138;2022-07-06T00:30:48;96714.00;;;18.90
14784;BMP180;7483;50.498;12.138;2022-07-06T00:33:16;96710.00;;;18.90
14784;BMP180;7483;50.498;12.138;2022-07-06T00:35:44;96715.00;;;18.90
14784;BMP180;7483;50.498;12.138;2022-07-06T00:38:12;96711.00;;;18.80
14784;BMP180;7483;50.498;12.138;2022-07-06T00:40:40;96709.00;;;18.70
14784;BMP180;7483;50.498;12.138;2022-07-06T00:43:08;96698.00;;;18.90
14784;BMP180;7483;50.498;12.138;2022-07-06T00:45:38;96726.00;;;19.00
14784;BMP180;7483;50.498;12.138;2022-07-06T00:48:06;96729.00;;;19.10
14784;BMP180;7483;50.498;12.138;2022-07-06T00:50:36;96703.00;;;18.90
14784;BMP180;7483;50.498;12.138;2022-07-06T00:53:06;96707.00;;;18.90
14784;BMP180;7483;50.498;12.138;2022-07-06T00:55:36;96717.00;;;18.90
14784;BMP180;7483;50.498;12.138;2022-07-06T00:58:08;96716.00;;;18.70
14784;BMP180;7483;50.498;12.138;2022-07-06T01:00:37;96703.00;;;18.60
14784;BMP180;7483;50.498;12.138;2022-07-06T01:03:11;96692.00;;;18.40
14784;BMP180;7483;50.498;12.138;2022-07-06T01:05:39;96686.00;;;18.50
14784;BMP180;7483;50.498;12.138;2022-07-06T01:08:07;96710.00;;;18.70
14784;BMP180;7483;50.498;12.138;2022-07-06T01:10:35;96710.00;;;18.70
14784;BMP180;7483;50.498;12.138;2022-07-06T01:13:04;96638.00;;;18.60
14784;BMP180;7483;50.498;12.138;2022-07-06T01:15:32;96691.00;;;18.50
14784;BMP180;7483;50.498;12.138;2022-07-06T01:18:03;96676.00;;;18.10
14784;BMP180;7483;50.498;12.138;2022-07-06T01:20:33;96697.00;;;18.10
14784;BMP180;7483;50.498;12.138;2022-07-06T01:23:01;96735.00;;;18.20
14784;BMP180;7483;50.498;12.138;2022-07-06T01:25:29;96742.00;;;18.00
14784;BMP180;7483;50.498;12.138;2022-07-06T01:27:57;96702.00;;;17.60
14784;BMP180;7483;50.498;12.138;2022-07-06T01:30:25;96684.00;;;17.40
14784;BMP180;7483;50.498;12.138;2022-07-06T01:32:53;96613.00;;;17.60
14784;BMP180;7483;50.498;12.138;2022-07-06T01:35:23;96702.00;;;17.80
14784;BMP180;7483;50.498;12.138;2022-07-06T01:37:53;96705.00;;;17.80
14784;BMP180;7483;50.498;12.138;2022-07-06T01:40:21;96720.00;;;17.80
14784;BMP180;7483;50.498;12.138;2022-07-06T01:42:49;96727.00;;;17.70
14784;BMP180;7483;50.498;12.138;2022-07-06T01:45:19;96717.00;;;17.50
14784;BMP180;7483;50.498;12.138;2022-07-06T01:47:47;96687.00;;;17.20
14784;BMP180;7483;50.498;12.138;2022-07-06T01:50:16;96676.00;;;17.00
14784;BMP180;7483;50.498;12.138;2022-07-06T01:52:46;96682.00;;;16.70
14784;BMP180;7483;50.498;12.138;2022-07-06T01:55:15;96676.00;;;16.60
14784;BMP180;7483;50.498;12.138;2022-07-06T01:57:43;96684.00;;;16.60
14784;BMP180;7483;50.498;12.138;2022-07-06T02:00:13;96673.00;;;16.60
14784;BMP180;7483;50.498;12.138;2022-07-06T02:02:47;96663.00;;;16.60
14784;BMP180;7483;50.498;12.138;2022-07-06T02:05:15;96677.00;;;16.70
14784;BMP180;7483;50.498;12.138;2022-07-06T02:07:43;96674.00;;;16.60
14784;BMP180;7483;50.498;12.138;2022-07-06T02:10:12;96642.00;;;16.60
14784;BMP180;7483;50.498;12.138;2022-07-06T02:12:43;96633.00;;;16.40
14784;BMP180;7483;50.498;12.138;2022-07-06T02:15:11;96635.00;;;16.40
14784;BMP180;7483;50.498;12.138;2022-07-06T02:17:40;96629.00;;;16.20
14784;BMP180;7483;50.498;12.138;2022-07-06T02:20:09;96632.00;;;16.10
14784;BMP180;7483;50.498;12.138;2022-07-06T02:22:37;96635.00;;;16.10
14784;BMP180;7483;50.498;12.138;2022-07-06T02:25:07;96637.00;;;16.00
14784;BMP180;7483;50.498;12.138;2022-07-06T02:27:36;96636.00;;;16.00
14784;BMP180;7483;50.498;12.138;2022-07-06T02:30:10;96723.00;;;16.10
14784;BMP180;7483;50.498;12.138;2022-07-06T02:32:38;96669.00;;;16.10
14784;BMP180;7483;50.498;12.138;2022-07-06T02:35:07;96684.00;;;16.10
14784;BMP180;7483;50.498;12.138;2022-07-06T02:37:36;96720.00;;;16.00
14784;BMP180;7483;50.498;12.138;2022-07-06T02:40:06;96719.00;;;16.10
14784;BMP180;7483;50.498;12.138;2022-07-06T02:42:34;96654.00;;;15.90
14784;BMP180;7483;50.498;12.138;2022-07-06T02:45:04;96643.00;;;15.90
14784;BMP180;7483;50.498;12.138;2022-07-06T02:47:34;96659.00;;;15.90
14784;BMP180;7483;50.498;12.138;2022-07-06T02:50:04;96643.00;;;15.90
14784;BMP180;7483;50.498;12.138;2022-07-06T02:52:32;96662.00;;;15.90
14784;BMP180;7483;50.498;12.138;2022-07-06T02:55:07;96671.00;;;16.10
14784;BMP180;7483;50.498;12.138;2022-07-06T02:57:36;96607.00;;;16.00
14784;BMP180;7483;50.498;12.138;2022-07-06T03:00:06;96649.00;;;15.80
14784;BMP180;7483;50.498;12.138;2022-07-06T03:02:37;96643.00;;;15.70
14784;BMP180;7483;50.498;12.138;2022-07-06T03:05:06;96625.00;;;15.60
14784;BMP180;7483;50.498;12.138;2022-07-06T03:07:35;96632.00;;;15.50
14784;BMP180;7483;50.498;12.138;2022-07-06T03:10:04;96606.00;;;15.40
14784;BMP180;7483;50.498;12.138;2022-07-06T03:12:32;96612.00;;;15.20
14784;BMP180;7483;50.498;12.138;2022-07-06T03:15:00;96618.00;;;15.20
14784;BMP180;7483;50.498;12.138;2022-07-06T03:17:31;96630.00;;;15.20
14784;BMP180;7483;50.498;12.138;2022-07-06T03:20:01;96610.00;;;15.10
14784;BMP180;7483;50.498;12.138;2022-07-06T03:22:29;96625.00;;;15.20
14784;BMP180;7483;50.498;12.138;2022-07-06T03:24:58;96629.00;;;15.20
14784;BMP180;7483;50.498;12.138;2022-07-06T03:27:26;96627.00;;;15.20
14784;BMP180;7483;50.498;12.138;2022-07-06T03:29:54;96638.00;;;15.30
14784;BMP180;7483;50.498;12.138;2022-07-06T03:32:22;96630.00;;;15.20
14784;BMP180;7483;50.498;12.138;2022-07-06T03:34:51;96621.00;;;15.20
14784;BMP180;7483;50.498;12.138;2022-07-06T03:37:20;96607.00;;;15.00
14784;BMP180;7483;50.498;12.138;2022-07-06T03:39:49;96614.00;;;15.00
14784;BMP180;7483;50.498;12.138;2022-07-06T03:42:17;96617.00;;;15.10
14784;BMP180;7483;50.498;12.138;2022-07-06T03:44:45;96619.00;;;15.10
14784;BMP180;7483;50.498;12.138;2022-07-06T03:47:13;96620.00;;;15.10
14784;BMP180;7483;50.498;12.138;2022-07-06T03:49:43;96619.00;;;14.80
14784;BMP180;7483;50.498;12.138;2022-07-06T03:52:11;96629.00;;;15.10
14784;BMP180;7483;50.498;12.138;2022-07-06T03:54:46;96628.00;;;15.20
14784;BMP180;7483;50.498;12.138;2022-07-06T03:57:18;96606.00;;;15.00
14784;BMP180;7483;50.498;12.138;2022-07-06T03:59:48;96611.00;;;15.00
14784;BMP180;7483;50.498;12.138;2022-07-06T04:02:16;96611.00;;;15.00
14784;BMP180;7483;50.498;12.138;2022-07-06T04:04:48;96609.00;;;15.10
14784;BMP180;7483;50.498;12.138;2022-07-06T04:07:17;96620.00;;;15.20
14784;BMP180;7483;50.498;12.138;2022-07-06T04:09:47;96640.00;;;15.30
14784;BMP180;7483;50.498;12.138;2022-07-06T04:12:15;96651.00;;;15.40
14784;BMP180;7483;50.498;12.138;2022-07-06T04:14:44;96643.00;;;15.30
14784;BMP180;7483;50.498;12.138;2022-07-06T04:17:12;96628.00;;;15.20
14784;BMP180;7483;50.498;12.138;2022-07-06T04:19:58;96620.00;;;15.20
14784;BMP180;7483;50.498;12.138;2022-07-06T04:22:26;96625.00;;;15.10
14784;BMP180;7483;50.498;12.138;2022-07-06T04:24:55;96621.00;;;15.30
14784;BMP180;7483;50.498;12.138;2022-07-06T04:27:26;96652.00;;;15.50
14784;BMP180;7483;50.498;12.138;2022-07-06T04:29:54;96664.00;;;15.70
14784;BMP180;7483;50.498;12.138;2022-07-06T04:32:22;96675.00;;;15.80
14784;BMP180;7483;50.498;12.138;2022-07-06T04:34:52;96681.00;;;16.00
14784;BMP180;7483;50.498;12.138;2022-07-06T04:37:20;96678.00;;;16.10
14784;BMP180;7483;50.498;12.138;2022-07-06T04:39:48;96683.00;;;16.20
14784;BMP180;7483;50.498;12.138;2022-07-06T04:42:18;96674.00;;;16.30
14784;BMP180;7483;50.498;12.138;2022-07-06T04:44:47;96703.00;;;16.30
14784;BMP180;7483;50.498;12.138;2022-07-06T04:47:15;96706.00;;;16.40
14784;BMP180;7483;50.498;12.138;2022-07-06T04:49:44;96680.00;;;16.40
14784;BMP180;7483;50.498;12.138;2022-07-06T04:52:13;96704.00;;;16.60
14784;BMP180;7483;50.498;12.138;2022-07-06T04:54:42;96701.00;;;16.50
14784;BMP180;7483;50.498;12.138;2022-07-06T04:57:12;96700.00;;;16.50
14784;BMP180;7483;50.498;12.138;2022-07-06T04:59:43;96683.00;;;16.30
14784;BMP180;7483;50.498;12.138;2022-07-06T05:02:12;96696.00;;;16.30
14784;BMP180;7483;50.498;12.138;2022-07-06T05:04:40;96694.00;;;16.50
14784;BMP180;7483;50.498;12.138;2022-07-06T05:07:08;96715.00;;;16.60
14784;BMP180;7483;50.498;12.138;2022-07-06T05:09:37;96732.00;;;16.80
14784;BMP180;7483;50.498;12.138;2022-07-06T05:12:07;96704.00;;;16.60
14784;BMP180;7483;50.498;12.138;2022-07-06T05:14:35;96715.00;;;16.70
14784;BMP180;7483;50.498;12.138;2022-07-06T05:17:06;96717.00;;;16.80
14784;BMP180;7483;50.498;12.138;2022-07-06T05:19:34;96742.00;;;16.80
14784;BMP180;7483;50.498;12.138;2022-07-06T05:22:03;96740.00;;;16.80
14784;BMP180;7483;50.498;12.138;2022-07-06T05:24:32;96724.00;;;16.70
14784;BMP180;7483;50.498;12.138;2022-07-06T05:27:00;96711.00;;;16.70
14784;BMP180;7483;50.498;12.138;2022-07-06T05:29:28;96715.00;;;16.70
14784;BMP180;7483;50.498;12.138;2022-07-06T05:31:56;96712.00;;;16.70
14784;BMP180;7483;50.498;12.138;2022-07-06T05:34:26;96727.00;;;16.80
14784;BMP180;7483;50.498;12.138;2022-07-06T05:36:54;96741.00;;;16.80
14784;BMP180;7483;50.498;12.138;2022-07-06T05:39:27;96721.00;;;16.70
14784;BMP180;7483;50.498;12.138;2022-07-06T05:41:55;96733.00;;;16.80
14784;BMP180;7483;50.498;12.138;2022-07-06T05:44:23;96745.00;;;16.80
14784;BMP180;7483;50.498;12.138;2022-07-06T05:46:52;96760.00;;;16.80
14784;BMP180;7483;50.498;12.138;2022-07-06T05:49:42;96762.00;;;16.90
14784;BMP180;7483;50.498;12.138;2022-07-06T05:52:29;96755.00;;;16.90
14784;BMP180;7483;50.498;12.138;2022-07-06T05:54:57;96771.00;;;17.00
14784;BMP180;7483;50.498;12.138;2022-07-06T05:57:25;96794.00;;;17.20
14784;BMP180;7483;50.498;12.138;2022-07-06T05:59:54;96773.00;;;17.10
14784;BMP180;7483;50.498;12.138;2022-07-06T06:02:22;96779.00;;;17.30
14784;BMP180;7483;50.498;12.138;2022-07-06T06:04:53;96779.00;;;17.50
14784;BMP180;7483;50.498;12.138;2022-07-06T06:07:21;96788.00;;;17.60
14784;BMP180;7483;50.498;12.138;2022-07-06T06:09:49;96794.00;;;17.70
14784;BMP180;7483;50.498;12.138;2022-07-06T06:12:17;96792.00;;;17.80
14784;BMP180;7483;50.498;12.138;2022-07-06T06:14:45;96805.00;;;17.90
14784;BMP180;7483;50.498;12.138;2022-07-06T06:17:13;96804.00;;;17.80
14784;BMP180;7483;50.498;12.138;2022-07-06T06:19:41;96819.00;;;18.00
14784;BMP180;7483;50.498;12.138;2022-07-06T06:22:11;96816.00;;;18.00
14784;BMP180;7483;50.498;12.138;2022-07-06T06:24:39;96812.00;;;17.80
14784;BMP180;7483;50.498;12.138;2022-07-06T06:27:07;96815.00;;;17.60
14784;BMP180;7483;50.498;12.138;2022-07-06T06:29:35;96799.00;;;17.60
14784;BMP180;7483;50.498;12.138;2022-07-06T06:32:04;96748.00;;;17.70
14784;BMP180;7483;50.498;12.138;2022-07-06T06:34:32;96791.00;;;17.50
14784;BMP180;7483;50.498;12.138;2022-07-06T06:37:00;96803.00;;;17.60
14784;BMP180;7483;50.498;12.138;2022-07-06T06:39:29;96814.00;;;17.70
14784;BMP180;7483;50.498;12.138;2022-07-06T06:41:58;96826.00;;;17.90
14784;BMP180;7483;50.498;12.138;2022-07-06T06:44:31;96825.00;;;17.90
14784;BMP180;7483;50.498;12.138;2022-07-06T06:46:59;96832.00;;;18.00
14784;BMP180;7483;50.498;12.138;2022-07-06T06:49:27;96826.00;;;18.00
14784;BMP180;7483;50.498;12.138;2022-07-06T06:51:55;96824.00;;;17.80
14784;BMP180;7483;50.498;12.138;2022-07-06T06:54:44;96838.00;;;18.00
14784;BMP180;7483;50.498;12.138;2022-07-06T06:57:12;96850.00;;;18.20
14784;BMP180;7483;50.498;12.138;2022-07-06T06:59:40;96843.00;;;18.30
14784;BMP180;7483;50.498;12.138;2022-07-06T07:02:08;96847.00;;;18.30
14784;BMP180;7483;50.498;12.138;2022-07-06T07:04:37;96858.00;;;18.50
14784;BMP180;7483;50.498;12.138;2022-07-06T07:07:05;96863.00;;;18.60
14784;BMP180;7483;50.498;12.138;2022-07-06T07:09:33;96860.00;;;18.70
14784;BMP180;7483;50.498;12.138;2022-07-06T07:12:03;96852.00;;;18.80
14784;BMP180;7483;50.498;12.138;2022-07-06T07:14:31;96864.00;;;18.70
14784;BMP180;7483;50.498;12.138;2022-07-06T07:16:59;96853.00;;;18.80
14784;BMP180;7483;50.498;12.138;2022-07-06T07:19:27;96868.00;;;19.00
14784;BMP180;7483;50.498;12.138;2022-07-06T07:21:55;96867.00;;;18.90
14784;BMP180;7483;50.498;12.138;2022-07-06T07:24:23;96859.00;;;18.90
14784;BMP180;7483;50.498;12.138;2022-07-06T07:26:51;96871.00;;;19.00
14784;BMP180;7483;50.498;12.138;2022-07-06T07:29:20;96885.00;;;19.20
14784;BMP180;7483;50.498;12.138;2022-07-06T07:31:48;96895.00;;;19.40
14784;BMP180;7483;50.498;12.138;2022-07-06T07:34:16;96931.00;;;19.60
14784;BMP180;7483;50.498;12.138;2022-07-06T07:36:45;96923.00;;;19.60
14784;BMP180;7483;50.498;12.138;2022-07-06T07:39:13;96913.00;;;19.50
14784;BMP180;7483;50.498;12.138;2022-07-06T07:41:41;96924.00;;;20.00
14784;BMP180;7483;50.498;12.138;2022-07-06T07:44:09;96929.00;;;20.10
14784;BMP180;7483;50.498;12.138;2022-07-06T07:46:38;96931.00;;;20.30
14784;BMP180;7483;50.498;12.138;2022-07-06T07:49:06;96924.00;;;20.40
14784;BMP180;7483;50.498;12.138;2022-07-06T07:51:35;96936.00;;;20.40
14784;BMP180;7483;50.498;12.138;2022-07-06T07:54:03;96918.00;;;20.10
14784;BMP180;7483;50.498;12.138;2022-07-06T07:56:31;96933.00;;;20.00
14784;BMP180;7483;50.498;12.138;2022-07-06T07:58:59;96943.00;;;20.20
14784;BMP180;7483;50.498;12.138;2022-07-06T08:01:30;96932.00;;;20.30
14784;BMP180;7483;50.498;12.138;2022-07-06T08:04:00;96940.00;;;20.40
14784;BMP180;7483;50.498;12.138;2022-07-06T08:06:28;96913.00;;;20.50
14784;BMP180;7483;50.498;12.138;2022-07-06T08:08:56;96929.00;;;20.80
14784;BMP180;7483;50.498;12.138;2022-07-06T08:11:24;96950.00;;;21.20
14784;BMP180;7483;50.498;12.138;2022-07-06T08:13:52;96962.00;;;21.40
14784;BMP180;7483;50.498;12.138;2022-07-06T08:16:20;96923.00;;;20.90
14784;BMP180;7483;50.498;12.138;2022-07-06T08:18:49;96938.00;;;21.10
14784;BMP180;7483;50.498;12.138;2022-07-06T08:21:18;96943.00;;;21.10
14784;BMP180;7483;50.498;12.138;2022-07-06T08:23:54;96913.00;;;20.80
14784;BMP180;7483;50.498;12.138;2022-07-06T08:26:22;96954.00;;;21.00
14784;BMP180;7483;50.498;12.138;2022-07-06T08:28:51;96962.00;;;21.40
14784;BMP180;7483;50.498;12.138;2022-07-06T08:31:19;96930.00;;;20.90
14784;BMP180;7483;50.498;12.138;2022-07-06T08:34:07;96924.00;;;20.80
14784;BMP180;7483;50.498;12.138;2022-07-06T08:36:37;96933.00;;;21.00
14784;BMP180;7483;50.498;12.138;2022-07-06T08:39:05;96947.00;;;21.20
14784;BMP180;7483;50.498;12.138;2022-07-06T08:41:36;96978.00;;;21.50
14784;BMP180;7483;50.498;12.138;2022-07-06T08:44:07;96970.00;;;21.60
14784;BMP180;7483;50.498;12.138;2022-07-06T08:46:38;96975.00;;;21.70
14784;BMP180;7483;50.498;12.138;2022-07-06T08:49:07;96983.00;;;22.00
14784;BMP180;7483;50.498;12.138;2022-07-06T08:51:37;96964.00;;;21.80
14784;BMP180;7483;50.498;12.138;2022-07-06T08:54:07;97006.00;;;22.20
14784;BMP180;7483;50.498;12.138;2022-07-06T08:56:35;97025.00;;;22.60
14784;BMP180;7483;50.498;12.138;2022-07-06T08:59:03;97017.00;;;22.70
14784;BMP180;7483;50.498;12.138;2022-07-06T09:01:32;97014.00;;;22.70
14784;BMP180;7483;50.498;12.138;2022-07-06T09:04:03;96978.00;;;22.10
14784;BMP180;7483;50.498;12.138;2022-07-06T09:06:33;96974.00;;;22.20
14784;BMP180;7483;50.498;12.138;2022-07-06T09:09:06;96966.00;;;22.20
14784;BMP180;7483;50.498;12.138;2022-07-06T09:11:34;96962.00;;;22.20
14784;BMP180;7483;50.498;12.138;2022-07-06T09:14:04;96930.00;;;22.00
14784;BMP180;7483;50.498;12.138;2022-07-06T09:16:32;96958.00;;;22.40
14784;BMP180;7483;50.498;12.138;2022-07-06T09:19:06;96982.00;;;22.50
14784;BMP180;7483;50.498;12.138;2022-07-06T09:21:35;96971.00;;;22.80
14784;BMP180;7483;50.498;12.138;2022-07-06T09:24:10;96980.00;;;22.90
14784;BMP180;7483;50.498;12.138;2022-07-06T09:26:38;96965.00;;;22.80
14784;BMP180;7483;50.498;12.138;2022-07-06T09:29:06;96972.00;;;22.70
14784;BMP180;7483;50.498;12.138;2022-07-06T09:31:34;96970.00;;;22.60
14784;BMP180;7483;50.498;12.138;2022-07-06T09:34:04;96930.00;;;21.70
14784;BMP180;7483;50.498;12.138;2022-07-06T09:36:42;96907.00;;;21.50
14784;BMP180;7483;50.498;12.138;2022-07-06T09:39:22;96943.00;;;21.70
14784;BMP180;7483;50.498;12.138;2022-07-06T09:41:52;96943.00;;;21.90
14784;BMP180;7483;50.498;12.138;2022-07-06T09:44:23;96955.00;;;21.90
14784;BMP180;7483;50.498;12.138;2022-07-06T09:46:53;96950.00;;;22.10
14784;BMP180;7483;50.498;12.138;2022-07-06T09:49:21;96967.00;;;22.40
14784;BMP180;7483;50.498;12.138;2022-07-06T09:51:52;96963.00;;;22.70
14784;BMP180;7483;50.498;12.138;2022-07-06T09:54:22;96970.00;;;22.90
14784;BMP180;7483;50.498;12.138;2022-07-06T09:56:53;96954.00;;;23.00
14784;BMP180;7483;50.498;12.138;2022-07-06T09:59:24;96949.00;;;22.90
14784;BMP180;7483;50.498;12.138;2022-07-06T10:01:55;96946.00;;;22.70
14784;BMP180;7483;50.498;12.138;2022-07-06T10:04:25;96934.00;;;22.40
14784;BMP180;7483;50.498;12.138;2022-07-06T10:06:55;96919.00;;;22.50
14784;BMP180;7483;50.498;12.138;2022-07-06T10:09:27;96960.00;;;22.90
14784;BMP180;7483;50.498;12.138;2022-07-06T10:12:00;96953.00;;;23.00
14784;BMP180;7483;50.498;12.138;2022-07-06T10:14:31;96932.00;;;23.20
14784;BMP180;7483;50.498;12.138;2022-07-06T10:17:02;96971.00;;;23.70
14784;BMP180;7483;50.498;12.138;2022-07-06T10:19:32;96938.00;;;23.80
14784;BMP180;7483;50.498;12.138;2022-07-06T10:22:03;96976.00;;;23.90
14784;BMP180;7483;50.498;12.138;2022-07-06T10:24:32;96973.00;;;23.70
14784;BMP180;7483;50.498;12.138;2022-07-06T10:27:07;96977.00;;;23.40
14784;BMP180;7483;50.498;12.138;2022-07-06T10:29:36;96947.00;;;23.30
14784;BMP180;7483;50.498;12.138;2022-07-06T10:32:06;96954.00;;;23.50
14784;BMP180;7483;50.498;12.138;2022-07-06T10:34:35;96957.00;;;23.60
14784;BMP180;7483;50.498;12.138;2022-07-06T10:37:04;96961.00;;;23.80
14784;BMP180;7483;50.498;12.138;2022-07-06T10:39:35;96968.00;;;24.20
14784;BMP180;7483;50.498;12.138;2022-07-06T10:42:43;96988.00;;;24.40
14784;BMP180;7483;50.498;12.138;2022-07-06T10:45:14;96960.00;;;24.10
14784;BMP180;7483;50.498;12.138;2022-07-06T10:47:43;96970.00;;;24.50
14784;BMP180;7483;50.498;12.138;2022-07-06T10:50:11;96983.00;;;24.60
14784;BMP180;7483;50.498;12.138;2022-07-06T10:52:52;96983.00;;;24.50
14784;BMP180;7483;50.498;12.138;2022-07-06T10:55:33;96988.00;;;24.20
14784;BMP180;7483;50.498;12.138;2022-07-06T10:58:03;96980.00;;;24.00
14784;BMP180;7483;50.498;12.138;2022-07-06T11:00:51;96935.00;;;23.80
14784;BMP180;7483;50.498;12.138;2022-07-06T11:03:35;96965.00;;;23.70
14784;BMP180;7483;50.498;12.138;2022-07-06T11:06:08;96963.00;;;23.50
14784;BMP180;7483;50.498;12.138;2022-07-06T11:08:50;96957.00;;;23.30
14784;BMP180;7483;50.498;12.138;2022-07-06T11:11:23;96952.00;;;23.20
14784;BMP180;7483;50.498;12.138;2022-07-06T11:13:59;96949.00;;;23.10
14784;BMP180;7483;50.498;12.138;2022-07-06T11:16:30;96941.00;;;23.30
14784;BMP180;7483;50.498;12.138;2022-07-06T11:19:07;96959.00;;;23.60
14784;BMP180;7483;50.498;12.138;2022-07-06T11:21:44;96946.00;;;23.70
14784;BMP180;7483;50.498;12.138;2022-07-06T11:24:15;96927.00;;;23.40
14784;BMP180;7483;50.498;12.138;2022-07-06T11:26:47;96949.00;;;23.80
14784;BMP180;7483;50.498;12.138;2022-07-06T11:29:19;96850.00;;;23.60
14784;BMP180;7483;50.498;12.138;2022-07-06T11:31:52;96955.00;;;24.20
14784;BMP180;7483;50.498;12.138;2022-07-06T11:34:23;96959.00;;;24.50
14784;BMP180;7483;50.498;12.138;2022-07-06T11:36:55;96975.00;;;25.10
14784;BMP180;7483;50.498;12.138;2022-07-06T11:39:26;97004.00;;;25.50
14784;BMP180;7483;50.498;12.138;2022-07-06T11:41:56;96983.00;;;24.60
14784;BMP180;7483;50.498;12.138;2022-07-06T11:44:25;96970.00;;;24.20
14784;BMP180;7483;50.498;12.138;2022-07-06T11:46:54;96953.00;;;23.90
14784;BMP180;7483;50.498;12.138;2022-07-06T11:49:23;96916.00;;;23.30
14784;BMP180;7483;50.498;12.138;2022-07-06T11:51:51;96942.00;;;23.60
14784;BMP180;7483;50.498;12.138;2022-07-06T11:54:21;96960.00;;;23.70
14784;BMP180;7483;50.498;12.138;2022-07-06T11:56:51;96939.00;;;23.50
14784;BMP180;7483;50.498;12.138;2022-07-06T11:59:25;96965.00;;;23.70
14784;BMP180;7483;50.498;12.138;2022-07-06T12:01:59;96947.00;;;23.70
14784;BMP180;7483;50.498;12.138;2022-07-06T12:04:27;96949.00;;;23.60
14784;BMP180;7483;50.498;12.138;2022-07-06T12:07:00;96918.00;;;23.00
14784;BMP180;7483;50.498;12.138;2022-07-06T12:09:30;96927.00;;;23.30
14784;BMP180;7483;50.498;12.138;2022-07-06T12:11:59;96938.00;;;23.60
14784;BMP180;7483;50.498;12.138;2022-07-06T12:14:32;96956.00;;;23.60
14784;BMP180;7483;50.498;12.138;2022-07-06T12:17:04;96904.00;;;23.30
14784;BMP180;7483;50.498;12.138;2022-07-06T12:19:33;97076.00;;;24.20
14784;BMP180;7483;50.498;12.138;2022-07-06T12:22:02;96999.00;;;24.30
14784;BMP180;7483;50.498;12.138;2022-07-06T12:24:33;96992.00;;;24.20
14784;BMP180;7483;50.498;12.138;2022-07-06T12:27:12;96988.00;;;24.40
14784;BMP180;7483;50.498;12.138;2022-07-06T12:29:42;97000.00;;;24.50
14784;BMP180;7483;50.498;12.138;2022-07-06T12:32:15;97001.00;;;24.60
14784;BMP180;7483;50.498;12.138;2022-07-06T12:34:43;96987.00;;;24.60
14784;BMP180;7483;50.498;12.138;2022-07-06T12:37:12;96998.00;;;24.70
14784;BMP180;7483;50.498;12.138;2022-07-06T12:39:43;96970.00;;;24.70
14784;BMP180;7483;50.498;12.138;2022-07-06T12:42:14;96983.00;;;25.00
14784;BMP180;7483;50.498;12.138;2022-07-06T12:44:50;96975.00;;;25.20
14784;BMP180;7483;50.498;12.138;2022-07-06T12:47:20;96961.00;;;25.10
14784;BMP180;7483;50.498;12.138;2022-07-06T12:50:06;96971.00;;;25.30
14784;BMP180;7483;50.498;12.138;2022-07-06T12:52:37;96975.00;;;25.30
14784;BMP180;7483;50.498;12.138;2022-07-06T12:55:07;96921.00;;;25.10
14784;BMP180;7483;50.498;12.138;2022-07-06T12:57:45;96982.00;;;24.90
14784;BMP180;7483;50.498;12.138;2022-07-06T13:00:16;96955.00;;;24.60
14784;BMP180;7483;50.498;12.138;2022-07-06T13:02:46;96926.00;;;24.80
14784;BMP180;7483;50.498;12.138;2022-07-06T13:05:34;96940.00;;;24.60
14784;BMP180;7483;50.498;12.138;2022-07-06T13:08:05;96943.00;;;24.50
14784;BMP180;7483;50.498;12.138;2022-07-06T13:10:33;96958.00;;;24.70
14784;BMP180;7483;50.498;12.138;2022-07-06T13:13:02;96954.00;;;24.60
14784;BMP180;7483;50.498;12.138;2022-07-06T13:15:32;96957.00;;;24.90
14784;BMP180;7483;50.498;12.138;2022-07-06T13:18:00;96974.00;;;25.10
14784;BMP180;7483;50.498;12.138;2022-07-06T13:20:28;96969.00;;;25.20
14784;BMP180;7483;50.498;12.138;2022-07-06T13:22:56;96983.00;;;25.40
14784;BMP180;7483;50.498;12.138;2022-07-06T13:25:24;96986.00;;;25.40
14784;BMP180;7483;50.498;12.138;2022-07-06T13:27:52;96990.00;;;25.10
14784;BMP180;7483;50.498;12.138;2022-07-06T13:30:20;97025.00;;;25.40
14784;BMP180;7483;50.498;12.138;2022-07-06T13:32:50;96952.00;;;25.20
14784;BMP180;7483;50.498;12.138;2022-07-06T13:35:18;96944.00;;;25.40
14784;BMP180;7483;50.498;12.138;2022-07-06T13:37:46;96909.00;;;24.70
14784;BMP180;7483;50.498;12.138;2022-07-06T13:40:16;96922.00;;;25.10
14784;BMP180;7483;50.498;12.138;2022-07-06T13:42:44;96901.00;;;25.00
14784;BMP180;7483;50.498;12.138;2022-07-06T13:45:12;96870.00;;;24.30
14784;BMP180;7483;50.498;12.138;2022-07-06T13:47:40;96876.00;;;24.60
14784;BMP180;7483;50.498;12.138;2022-07-06T13:50:10;96887.00;;;25.00
14784;BMP180;7483;50.498;12.138;2022-07-06T13:52:38;96866.00;;;25.00
14784;BMP180;7483;50.498;12.138;2022-07-06T13:55:07;96885.00;;;24.90
14784;BMP180;7483;50.498;12.138;2022-07-06T13:57:36;96898.00;;;24.90
14784;BMP180;7483;50.498;12.138;2022-07-06T14:00:06;96904.00;;;25.00
14784;BMP180;7483;50.498;12.138;2022-07-06T14:02:35;96896.00;;;24.80
14784;BMP180;7483;50.498;12.138;2022-07-06T14:05:03;96907.00;;;24.80
14784;BMP180;7483;50.498;12.138;2022-07-06T14:07:33;96895.00;;;24.60
14784;BMP180;7483;50.498;12.138;2022-07-06T14:10:01;96893.00;;;24.60
14784;BMP180;7483;50.498;12.138;2022-07-06T14:12:30;96886.00;;;24.60
14784;BMP180;7483;50.498;12.138;2022-07-06T14:14:58;96881.00;;;24.40
14784;BMP180;7483;50.498;12.138;2022-07-06T14:17:26;96887.00;;;24.70
14784;BMP180;7483;50.498;12.138;2022-07-06T14:19:54;96890.00;;;24.90
14784;BMP180;7483;50.498;12.138;2022-07-06T14:22:22;96886.00;;;25.00
14784;BMP180;7483;50.498;12.138;2022-07-06T14:24:51;96891.00;;;25.00